sensor_id;sensor_type;location;lat;lon;timestamp;P1;durP1;ratioP1;P2;durP2;ratioP2
3667;SDS011;24099;47.102;15.440;2024-03-07T00:01:18;11.68;;;4.05;;
3667;SDS011;24099;47.102;15.440;2024-03-07T00:03:47;5.93;;;2.88;;
3667;SDS011;24099;47.102;15.440;2024-03-07T00:06:15;15.50;;;4.38;;
3667;SDS011;24099;47.102;15.440;2024-03-07T00:08:42;12.13;;;4.57;;
3667;SDS011;24099;47.102;15.440;2024-03-07T00:11:09;10.13;;;3.83;;
3667;SDS011;24099;47.102;15.440;2024-03-07T00:13:36;13.90;;;4.20;;
3667;SDS011;24099;47.102;15.440;2024-03-07T00:16:04;9.45;;;3.45;;
3667;SDS011;24099;47.102;15.440;2024-03-07T00:18:31;8.40;;;3.63;;
3667;SDS011;24099;47.102;15.440;2024-03-07T00:21:01;9.48;;;4.00;;
3667;SDS011;24099;47.102;15.440;2024-03-07T00:23:28;9.80;;;4.00;;
3667;SDS011;24099;47.102;15.440;2024-03-07T00:25:57;7.82;;;3.25;;
3667;SDS011;24099;47.102;15.440;2024-03-07T00:28:24;8.88;;;3.85;;
3667;SDS011;24099;47.102;15.440;2024-03-07T00:30:54;12.13;;;3.67;;
3667;SDS011;24099;47.102;15.440;2024-03-07T00:33:21;8.85;;;3.40;;
3667;SDS011;24099;47.102;15.440;2024-03-07T00:35:48;7.28;;;2.95;;
3667;SDS011;24099;47.102;15.440;2024-03-07T00:38:17;8.55;;;3.90;;
3667;SDS011;24099;47.102;15.440;2024-03-07T00:40:44;10.48;;;3.78;;
3667;SDS011;24099;47.102;15.440;2024-03-07T00:43:11;10.40;;;3.75;;
3667;SDS011;24099;47.102;15.440;2024-03-07T00:45:39;9.77;;;3.55;;
3667;SDS011;24099;47.102;15.440;2024-03-07T00:48:06;10.85;;;3.88;;
3667;SDS011;24099;47.102;15.440;2024-03-07T00:50:33;16.30;;;4.47;;
3667;SDS011;24099;47.102;15.440;2024-03-07T00:53:01;12.20;;;3.33;;
3667;SDS011;24099;47.102;15.440;2024-03-07T00:55:29;10.23;;;4.40;;
3667;SDS011;24099;47.102;15.440;2024-03-07T00:57:56;8.95;;;4.35;;
3667;SDS011;24099;47.102;15.440;2024-03-07T01:00:23;8.93;;;4.28;;
3667;SDS011;24099;47.102;15.440;2024-03-07T01:02:50;10.13;;;4.18;;
3667;SDS011;24099;47.102;15.440;2024-03-07T01:05:18;9.02;;;4.25;;
3667;SDS011;24099;47.102;15.440;2024-03-07T01:07:45;10.40;;;5.00;;
3667;SDS011;24099;47.102;15.440;2024-03-07T01:10:12;9.80;;;4.50;;
3667;SDS011;24099;47.102;15.440;2024-03-07T01:12:41;11.85;;;4.45;;
3667;SDS011;24099;47.102;15.440;2024-03-07T01:15:09;8.73;;;3.63;;
3667;SDS011;24099;47.102;15.440;2024-03-07T01:17:36;16.20;;;4.45;;
3667;SDS011;24099;47.102;15.440;2024-03-07T01:20:04;9.82;;;4.45;;
3667;SDS011;24099;47.102;15.440;2024-03-07T01:22:32;16.67;;;4.55;;
3667;SDS011;24099;47.102;15.440;2024-03-07T01:24:59;10.90;;;4.25;;
3667;SDS011;24099;47.102;15.440;2024-03-07T01:27:26;13.57;;;4.20;;
3667;SDS011;24099;47.102;15.440;2024-03-07T01:29:55;6.88;;;3.80;;
3667;SDS011;24099;47.102;15.440;2024-03-07T01:32:22;12.32;;;4.35;;
3667;SDS011;24099;47.102;15.440;2024-03-07T01:34:49;10.27;;;3.83;;
3667;SDS011;24099;47.102;15.440;2024-03-07T01:37:16;11.57;;;4.20;;
3667;SDS011;24099;47.102;15.440;2024-03-07T01:39:44;11.23;;;4.65;;
3667;SDS011;24099;47.102;15.440;2024-03-07T01:42:11;13.40;;;4.90;;
3667;SDS011;24099;47.102;15.440;2024-03-07T01:44:39;10.95;;;5.05;;
3667;SDS011;24099;47.102;15.440;2024-03-07T01:47:08;12.93;;;4.07;;
3667;SDS011;24099;47.102;15.440;2024-03-07T01:49:35;13.23;;;4.70;;
3667;SDS011;24099;47.102;15.440;2024-03-07T01:52:04;14.05;;;4.85;;
3667;SDS011;24099;47.102;15.440;2024-03-07T01:54:31;13.90;;;4.60;;
3667;SDS011;24099;47.102;15.440;2024-03-07T01:56:58;23.15;;;4.93;;
3667;SDS011;24099;47.102;15.440;2024-03-07T01:59:26;12.68;;;4.60;;
3667;SDS011;24099;47.102;15.440;2024-03-07T02:01:55;12.35;;;5.00;;
3667;SDS011;24099;47.102;15.440;2024-03-07T02:04:24;13.18;;;4.82;;
3667;SDS011;24099;47.102;15.440;2024-03-07T02:06:51;10.93;;;4.40;;
3667;SDS011;24099;47.102;15.440;2024-03-07T02:09:20;12.27;;;4.55;;
3667;SDS011;24099;47.102;15.440;2024-03-07T02:11:47;7.95;;;4.10;;
3667;SDS011;24099;47.102;15.440;2024-03-07T02:14:15;13.93;;;4.82;;
3667;SDS011;24099;47.102;15.440;2024-03-07T02:16:42;11.27;;;4.68;;
3667;SDS011;24099;47.102;15.440;2024-03-07T02:19:09;10.38;;;4.55;;
3667;SDS011;24099;47.102;15.440;2024-03-07T02:21:39;16.48;;;5.20;;
3667;SDS011;24099;47.102;15.440;2024-03-07T02:24:06;17.42;;;5.68;;
3667;SDS011;24099;47.102;15.440;2024-03-07T02:26:33;20.13;;;5.35;;
3667;SDS011;24099;47.102;15.440;2024-03-07T02:29:00;15.27;;;6.28;;
3667;SDS011;24099;47.102;15.440;2024-03-07T02:31:27;15.52;;;5.85;;
3667;SDS011;24099;47.102;15.440;2024-03-07T02:34:00;14.18;;;5.93;;
3667;SDS011;24099;47.102;15.440;2024-03-07T02:36:27;19.13;;;6.22;;
3667;SDS011;24099;47.102;15.440;2024-03-07T02:38:56;15.77;;;6.50;;
3667;SDS011;24099;47.102;15.440;2024-03-07T02:41:23;14.38;;;6.03;;
3667;SDS011;24099;47.102;15.440;2024-03-07T02:43:50;18.23;;;5.22;;
3667;SDS011;24099;47.102;15.440;2024-03-07T02:46:17;9.55;;;4.53;;
3667;SDS011;24099;47.102;15.440;2024-03-07T02:48:44;11.18;;;4.53;;
3667;SDS011;24099;47.102;15.440;2024-03-07T02:51:11;11.50;;;4.43;;
3667;SDS011;24099;47.102;15.440;2024-03-07T02:53:38;12.98;;;4.70;;
3667;SDS011;24099;47.102;15.440;2024-03-07T02:56:06;14.07;;;4.55;;
3667;SDS011;24099;47.102;15.440;2024-03-07T02:58:35;17.00;;;4.78;;
3667;SDS011;24099;47.102;15.440;2024-03-07T03:01:02;13.88;;;4.43;;
3667;SDS011;24099;47.102;15.440;2024-03-07T03:03:29;10.10;;;4.15;;
3667;SDS011;24099;47.102;15.440;2024-03-07T03:05:57;10.60;;;4.35;;
3667;SDS011;24099;47.102;15.440;2024-03-07T03:08:24;18.42;;;4.13;;
3667;SDS011;24099;47.102;15.440;2024-03-07T03:10:53;12.25;;;4.53;;
3667;SDS011;24099;47.102;15.440;2024-03-07T03:13:23;16.25;;;4.07;;
3667;SDS011;24099;47.102;15.440;2024-03-07T03:15:53;9.43;;;4.53;;
3667;SDS011;24099;47.102;15.440;2024-03-07T03:18:20;11.02;;;3.88;;
3667;SDS011;24099;47.102;15.440;2024-03-07T03:20:47;8.88;;;4.28;;
3667;SDS011;24099;47.102;15.440;2024-03-07T03:23:14;19.25;;;4.80;;
3667;SDS011;24099;47.102;15.440;2024-03-07T03:25:42;11.18;;;4.15;;
3667;SDS011;24099;47.102;15.440;2024-03-07T03:28:09;12.30;;;4.57;;
3667;SDS011;24099;47.102;15.440;2024-03-07T03:30:38;10.23;;;3.50;;
3667;SDS011;24099;47.102;15.440;2024-03-07T03:33:06;10.25;;;4.20;;
3667;SDS011;24099;47.102;15.440;2024-03-07T03:35:33;13.43;;;3.88;;
3667;SDS011;24099;47.102;15.440;2024-03-07T03:38:00;9.43;;;4.40;;
3667;SDS011;24099;47.102;15.440;2024-03-07T03:40:27;10.05;;;4.60;;
3667;SDS011;24099;47.102;15.440;2024-03-07T03:42:54;12.07;;;3.78;;
3667;SDS011;24099;47.102;15.440;2024-03-07T03:45:21;7.57;;;3.35;;
3667;SDS011;24099;47.102;15.440;2024-03-07T03:47:51;13.02;;;4.80;;
3667;SDS011;24099;47.102;15.440;2024-03-07T03:50:19;10.35;;;4.28;;
3667;SDS011;24099;47.102;15.440;2024-03-07T03:52:48;11.20;;;4.50;;
3667;SDS011;24099;47.102;15.440;2024-03-07T03:55:15;11.38;;;4.55;;
3667;SDS011;24099;47.102;15.440;2024-03-07T03:57:43;11.65;;;4.25;;
3667;SDS011;24099;47.102;15.440;2024-03-07T04:00:12;8.85;;;4.10;;
3667;SDS011;24099;47.102;15.440;2024-03-07T04:02:39;15.85;;;4.43;;
3667;SDS011;24099;47.102;15.440;2024-03-07T04:05:08;11.98;;;3.90;;
3667;SDS011;24099;47.102;15.440;2024-03-07T04:07:36;8.38;;;3.80;;
3667;SDS011;24099;47.102;15.440;2024-03-07T04:10:04;11.68;;;3.97;;
3667;SDS011;24099;47.102;15.440;2024-03-07T04:12:32;14.40;;;5.28;;
3667;SDS011;24099;47.102;15.440;2024-03-07T04:15:00;10.35;;;4.20;;
3667;SDS011;24099;47.102;15.440;2024-03-07T04:17:29;8.80;;;3.88;;
3667;SDS011;24099;47.102;15.440;2024-03-07T04:19:56;8.05;;;3.97;;
3667;SDS011;24099;47.102;15.440;2024-03-07T04:22:25;6.22;;;3.42;;
3667;SDS011;24099;47.102;15.440;2024-03-07T04:24:53;8.52;;;3.83;;
3667;SDS011;24099;47.102;15.440;2024-03-07T04:27:20;7.68;;;4.05;;
3667;SDS011;24099;47.102;15.440;2024-03-07T04:29:47;8.52;;;4.03;;
3667;SDS011;24099;47.102;15.440;2024-03-07T04:32:14;8.18;;;3.80;;
3667;SDS011;24099;47.102;15.440;2024-03-07T04:34:42;9.35;;;4.65;;
3667;SDS011;24099;47.102;15.440;2024-03-07T04:37:09;15.80;;;4.63;;
3667;SDS011;24099;47.102;15.440;2024-03-07T04:39:38;9.30;;;4.47;;
3667;SDS011;24099;47.102;15.440;2024-03-07T04:42:06;6.57;;;3.30;;
3667;SDS011;24099;47.102;15.440;2024-03-07T04:44:35;14.23;;;4.45;;
3667;SDS011;24099;47.102;15.440;2024-03-07T04:47:02;5.57;;;3.22;;
3667;SDS011;24099;47.102;15.440;2024-03-07T04:49:30;9.25;;;4.43;;
3667;SDS011;24099;47.102;15.440;2024-03-07T04:51:58;9.68;;;3.70;;
3667;SDS011;24099;47.102;15.440;2024-03-07T04:54:27;8.30;;;3.78;;
3667;SDS011;24099;47.102;15.440;2024-03-07T04:56:56;10.57;;;3.95;;
3667;SDS011;24099;47.102;15.440;2024-03-07T04:59:23;10.25;;;4.07;;
3667;SDS011;24099;47.102;15.440;2024-03-07T05:01:50;13.13;;;4.28;;
3667;SDS011;24099;47.102;15.440;2024-03-07T05:04:17;7.75;;;3.42;;
3667;SDS011;24099;47.102;15.440;2024-03-07T05:06:44;11.80;;;3.97;;
3667;SDS011;24099;47.102;15.440;2024-03-07T05:09:13;7.95;;;3.92;;
3667;SDS011;24099;47.102;15.440;2024-03-07T05:11:48;7.95;;;3.97;;
3667;SDS011;24099;47.102;15.440;2024-03-07T05:14:18;8.88;;;3.70;;
3667;SDS011;24099;47.102;15.440;2024-03-07T05:16:45;12.75;;;4.43;;
3667;SDS011;24099;47.102;15.440;2024-03-07T05:19:27;8.80;;;3.90;;
3667;SDS011;24099;47.102;15.440;2024-03-07T05:21:55;9.60;;;3.78;;
3667;SDS011;24099;47.102;15.440;2024-03-07T05:24:23;10.07;;;4.15;;
3667;SDS011;24099;47.102;15.440;2024-03-07T05:26:50;10.73;;;3.90;;
3667;SDS011;24099;47.102;15.440;2024-03-07T05:29:19;6.55;;;3.22;;
3667;SDS011;24099;47.102;15.440;2024-03-07T05:31:46;10.80;;;4.63;;
3667;SDS011;24099;47.102;15.440;2024-03-07T05:34:13;9.75;;;4.43;;
3667;SDS011;24099;47.102;15.440;2024-03-07T05:36:41;12.13;;;4.82;;
3667;SDS011;24099;47.102;15.440;2024-03-07T05:39:10;8.82;;;3.90;;
3667;SDS011;24099;47.102;15.440;2024-03-07T05:41:37;13.93;;;4.38;;
3667;SDS011;24099;47.102;15.440;2024-03-07T05:44:05;6.82;;;3.58;;
3667;SDS011;24099;47.102;15.440;2024-03-07T05:46:36;8.20;;;3.67;;
3667;SDS011;24099;47.102;15.440;2024-03-07T05:49:06;8.73;;;4.40;;
3667;SDS011;24099;47.102;15.440;2024-03-07T05:51:33;9.00;;;4.20;;
3667;SDS011;24099;47.102;15.440;2024-03-07T05:54:00;7.90;;;3.90;;
3667;SDS011;24099;47.102;15.440;2024-03-07T05:56:32;12.07;;;4.85;;
3667;SDS011;24099;47.102;15.440;2024-03-07T05:59:01;9.80;;;4.15;;
3667;SDS011;24099;47.102;15.440;2024-03-07T06:01:30;11.60;;;3.80;;
3667;SDS011;24099;47.102;15.440;2024-03-07T06:04:01;13.45;;;4.53;;
3667;SDS011;24099;47.102;15.440;2024-03-07T06:06:28;7.15;;;3.33;;
3667;SDS011;24099;47.102;15.440;2024-03-07T06:08:57;10.02;;;4.10;;
3667;SDS011;24099;47.102;15.440;2024-03-07T06:11:24;7.25;;;4.10;;
3667;SDS011;24099;47.102;15.440;2024-03-07T06:16:18;10.02;;;4.25;;
3667;SDS011;24099;47.102;15.440;2024-03-07T06:18:45;9.20;;;3.78;;
3667;SDS011;24099;47.102;15.440;2024-03-07T06:21:13;6.95;;;3.60;;
3667;SDS011;24099;47.102;15.440;2024-03-07T06:23:41;9.05;;;3.95;;
3667;SDS011;24099;47.102;15.440;2024-03-07T06:26:12;7.00;;;3.78;;
3667;SDS011;24099;47.102;15.440;2024-03-07T06:28:42;8.52;;;3.88;;
3667;SDS011;24099;47.102;15.440;2024-03-07T06:31:10;7.65;;;3.63;;
3667;SDS011;24099;47.102;15.440;2024-03-07T06:33:37;7.40;;;3.17;;
3667;SDS011;24099;47.102;15.440;2024-03-07T06:38:33;5.88;;;2.85;;
3667;SDS011;24099;47.102;15.440;2024-03-07T06:41:00;7.13;;;3.28;;
3667;SDS011;24099;47.102;15.440;2024-03-07T06:43:27;5.07;;;2.92;;
3667;SDS011;24099;47.102;15.440;2024-03-07T06:45:55;6.32;;;2.42;;
3667;SDS011;24099;47.102;15.440;2024-03-07T06:48:22;5.15;;;2.53;;
3667;SDS011;24099;47.102;15.440;2024-03-07T06:53:17;3.92;;;2.05;;
3667;SDS011;24099;47.102;15.440;2024-03-07T06:55:46;4.93;;;2.35;;
3667;SDS011;24099;47.102;15.440;2024-03-07T06:58:14;3.67;;;2.08;;
3667;SDS011;24099;47.102;15.440;2024-03-07T07:00:42;4.65;;;2.10;;
3667;SDS011;24099;47.102;15.440;2024-03-07T07:03:10;3.22;;;1.75;;
3667;SDS011;24099;47.102;15.440;2024-03-07T07:05:38;2.97;;;1.67;;
3667;SDS011;24099;47.102;15.440;2024-03-07T07:08:06;2.97;;;1.60;;
3667;SDS011;24099;47.102;15.440;2024-03-07T07:10:34;3.47;;;2.05;;
3667;SDS011;24099;47.102;15.440;2024-03-07T07:13:03;3.17;;;1.90;;
3667;SDS011;24099;47.102;15.440;2024-03-07T07:15:30;2.65;;;1.60;;
3667;SDS011;24099;47.102;15.440;2024-03-07T07:17:58;4.25;;;1.63;;
3667;SDS011;24099;47.102;15.440;2024-03-07T07:20:27;2.85;;;1.65;;
3667;SDS011;24099;47.102;15.440;2024-03-07T07:22:54;4.72;;;1.67;;
3667;SDS011;24099;47.102;15.440;2024-03-07T07:25:23;1.80;;;1.40;;
3667;SDS011;24099;47.102;15.440;2024-03-07T07:27:52;4.82;;;1.85;;
3667;SDS011;24099;47.102;15.440;2024-03-07T07:32:48;2.40;;;1.40;;
3667;SDS011;24099;47.102;15.440;2024-03-07T07:35:15;1.27;;;1.13;;
3667;SDS011;24099;47.102;15.440;2024-03-07T07:37:43;3.47;;;1.40;;
3667;SDS011;24099;47.102;15.440;2024-03-07T07:40:11;1.63;;;1.20;;
3667;SDS011;24099;47.102;15.440;2024-03-07T07:42:40;2.03;;;1.30;;
3667;SDS011;24099;47.102;15.440;2024-03-07T07:45:08;1.38;;;1.13;;
3667;SDS011;24099;47.102;15.440;2024-03-07T07:47:38;3.13;;;1.23;;
3667;SDS011;24099;47.102;15.440;2024-03-07T07:50:07;2.38;;;1.33;;
3667;SDS011;24099;47.102;15.440;2024-03-07T07:52:41;1.63;;;0.98;;
3667;SDS011;24099;47.102;15.440;2024-03-07T07:55:08;1.95;;;1.40;;
3667;SDS011;24099;47.102;15.440;2024-03-07T07:57:40;2.25;;;1.30;;
3667;SDS011;24099;47.102;15.440;2024-03-07T08:00:10;2.72;;;1.10;;
3667;SDS011;24099;47.102;15.440;2024-03-07T08:02:52;2.00;;;1.40;;
3667;SDS011;24099;47.102;15.440;2024-03-07T08:05:20;1.83;;;1.23;;
3667;SDS011;24099;47.102;15.440;2024-03-07T08:07:48;2.47;;;1.20;;
3667;SDS011;24099;47.102;15.440;2024-03-07T08:10:16;2.65;;;1.20;;
3667;SDS011;24099;47.102;15.440;2024-03-07T08:12:44;1.63;;;1.10;;
3667;SDS011;24099;47.102;15.440;2024-03-07T08:15:11;1.65;;;1.05;;
3667;SDS011;24099;47.102;15.440;2024-03-07T08:17:39;2.25;;;1.10;;
3667;SDS011;24099;47.102;15.440;2024-03-07T08:20:11;2.55;;;1.00;;
3667;SDS011;24099;47.102;15.440;2024-03-07T08:22:39;2.97;;;1.10;;
3667;SDS011;24099;47.102;15.440;2024-03-07T08:25:07;3.55;;;1.08;;
3667;SDS011;24099;47.102;15.440;2024-03-07T08:27:35;1.90;;;0.98;;
3667;SDS011;24099;47.102;15.440;2024-03-07T08:30:04;1.08;;;0.93;;
3667;SDS011;24099;47.102;15.440;2024-03-07T08:32:33;1.98;;;1.02;;
3667;SDS011;24099;47.102;15.440;2024-03-07T08:35:02;2.25;;;1.08;;
3667;SDS011;24099;47.102;15.440;2024-03-07T08:37:34;0.70;;;0.70;;
3667;SDS011;24099;47.102;15.440;2024-03-07T08:40:01;1.25;;;0.85;;
3667;SDS011;24099;47.102;15.440;2024-03-07T08:42:31;2.85;;;0.88;;
3667;SDS011;24099;47.102;15.440;2024-03-07T08:44:59;1.58;;;1.20;;
3667;SDS011;24099;47.102;15.440;2024-03-07T08:47:26;1.45;;;1.00;;
3667;SDS011;24099;47.102;15.440;2024-03-07T08:49:55;1.08;;;0.98;;
3667;SDS011;24099;47.102;15.440;2024-03-07T08:54:50;2.22;;;1.23;;
3667;SDS011;24099;47.102;15.440;2024-03-07T08:57:18;1.58;;;1.00;;
3667;SDS011;24099;47.102;15.440;2024-03-07T08:59:45;0.98;;;0.90;;
3667;SDS011;24099;47.102;15.440;2024-03-07T09:02:13;1.30;;;1.20;;
3667;SDS011;24099;47.102;15.440;2024-03-07T09:04:40;1.95;;;0.90;;
3667;SDS011;24099;47.102;15.440;2024-03-07T09:07:07;1.08;;;0.90;;
3667;SDS011;24099;47.102;15.440;2024-03-07T09:09:34;3.05;;;1.13;;
3667;SDS011;24099;47.102;15.440;2024-03-07T09:14:30;2.40;;;1.23;;
3667;SDS011;24099;47.102;15.440;2024-03-07T09:16:57;1.20;;;1.10;;
3667;SDS011;24099;47.102;15.440;2024-03-07T09:19:24;2.10;;;1.00;;
3667;SDS011;24099;47.102;15.440;2024-03-07T09:21:52;0.98;;;0.90;;
3667;SDS011;24099;47.102;15.440;2024-03-07T09:26:48;1.60;;;1.20;;
3667;SDS011;24099;47.102;15.440;2024-03-07T09:29:16;1.55;;;1.10;;
3667;SDS011;24099;47.102;15.440;2024-03-07T09:31:43;3.55;;;1.65;;
3667;SDS011;24099;47.102;15.440;2024-03-07T09:34:10;8.95;;;3.80;;
3667;SDS011;24099;47.102;15.440;2024-03-07T09:36:38;10.38;;;4.35;;
3667;SDS011;24099;47.102;15.440;2024-03-07T09:39:06;7.38;;;3.53;;
3667;SDS011;24099;47.102;15.440;2024-03-07T09:41:34;7.32;;;4.20;;
3667;SDS011;24099;47.102;15.440;2024-03-07T09:44:01;7.03;;;4.20;;
3667;SDS011;24099;47.102;15.440;2024-03-07T09:46:30;7.55;;;4.00;;
3667;SDS011;24099;47.102;15.440;2024-03-07T09:48:58;6.82;;;3.47;;
3667;SDS011;24099;47.102;15.440;2024-03-07T09:51:25;9.20;;;4.28;;
3667;SDS011;24099;47.102;15.440;2024-03-07T09:53:54;8.27;;;4.07;;
3667;SDS011;24099;47.102;15.440;2024-03-07T09:56:23;7.45;;;3.63;;
3667;SDS011;24099;47.102;15.440;2024-03-07T09:58:51;7.35;;;3.65;;
3667;SDS011;24099;47.102;15.440;2024-03-07T10:01:20;5.47;;;3.38;;
3667;SDS011;24099;47.102;15.440;2024-03-07T10:03:50;6.05;;;3.35;;
3667;SDS011;24099;47.102;15.440;2024-03-07T10:06:18;5.60;;;3.20;;
3667;SDS011;24099;47.102;15.440;2024-03-07T10:08:46;13.77;;;3.58;;
3667;SDS011;24099;47.102;15.440;2024-03-07T10:11:13;5.72;;;3.22;;
3667;SDS011;24099;47.102;15.440;2024-03-07T10:16:08;3.88;;;1.98;;
3667;SDS011;24099;47.102;15.440;2024-03-07T10:18:41;3.28;;;2.25;;
3667;SDS011;24099;47.102;15.440;2024-03-07T10:21:09;3.00;;;1.90;;
3667;SDS011;24099;47.102;15.440;2024-03-07T10:23:36;4.25;;;2.38;;
3667;SDS011;24099;47.102;15.440;2024-03-07T10:28:30;5.00;;;2.22;;
3667;SDS011;24099;47.102;15.440;2024-03-07T10:30:58;5.20;;;2.20;;
3667;SDS011;24099;47.102;15.440;2024-03-07T10:35:53;4.30;;;1.60;;
3667;SDS011;24099;47.102;15.440;2024-03-07T10:40:48;5.22;;;1.55;;
3667;SDS011;24099;47.102;15.440;2024-03-07T10:43:20;1.48;;;1.10;;
3667;SDS011;24099;47.102;15.440;2024-03-07T10:45:48;1.90;;;1.23;;
3667;SDS011;24099;47.102;15.440;2024-03-07T10:48:17;1.92;;;1.20;;
3667;SDS011;24099;47.102;15.440;2024-03-07T10:50:48;4.80;;;1.30;;
3667;SDS011;24099;47.102;15.440;2024-03-07T10:53:25;1.65;;;1.20;;
3667;SDS011;24099;47.102;15.440;2024-03-07T10:56:02;2.25;;;1.48;;
3667;SDS011;24099;47.102;15.440;2024-03-07T10:58:37;2.13;;;1.80;;
3667;SDS011;24099;47.102;15.440;2024-03-07T11:01:09;3.83;;;2.00;;
3667;SDS011;24099;47.102;15.440;2024-03-07T11:03:37;3.42;;;1.90;;
3667;SDS011;24099;47.102;15.440;2024-03-07T11:06:05;3.53;;;1.50;;
3667;SDS011;24099;47.102;15.440;2024-03-07T11:08:37;2.42;;;1.55;;
3667;SDS011;24099;47.102;15.440;2024-03-07T11:11:05;2.55;;;1.88;;
3667;SDS011;24099;47.102;15.440;2024-03-07T11:13:33;3.17;;;1.70;;
3667;SDS011;24099;47.102;15.440;2024-03-07T11:16:00;2.90;;;1.70;;
3667;SDS011;24099;47.102;15.440;2024-03-07T11:18:28;2.35;;;1.60;;
3667;SDS011;24099;47.102;15.440;2024-03-07T11:20:55;2.42;;;1.73;;
3667;SDS011;24099;47.102;15.440;2024-03-07T11:23:26;3.13;;;1.80;;
3667;SDS011;24099;47.102;15.440;2024-03-07T11:26:03;3.22;;;1.80;;
3667;SDS011;24099;47.102;15.440;2024-03-07T11:28:32;3.40;;;1.95;;
3667;SDS011;24099;47.102;15.440;2024-03-07T11:31:08;3.17;;;2.00;;
3667;SDS011;24099;47.102;15.440;2024-03-07T11:34:14;3.17;;;1.88;;
3667;SDS011;24099;47.102;15.440;2024-03-07T11:36:44;2.83;;;1.98;;
3667;SDS011;24099;47.102;15.440;2024-03-07T11:42:07;3.17;;;2.00;;
3667;SDS011;24099;47.102;15.440;2024-03-07T11:44:34;4.00;;;1.73;;
3667;SDS011;24099;47.102;15.440;2024-03-07T11:47:05;6.80;;;2.38;;
3667;SDS011;24099;47.102;15.440;2024-03-07T11:49:34;2.78;;;2.10;;
3667;SDS011;24099;47.102;15.440;2024-03-07T11:52:02;2.85;;;2.03;;
3667;SDS011;24099;47.102;15.440;2024-03-07T11:54:37;2.45;;;2.00;;
3667;SDS011;24099;47.102;15.440;2024-03-07T11:57:05;3.90;;;1.90;;
3667;SDS011;24099;47.102;15.440;2024-03-07T11:59:38;3.80;;;2.08;;
3667;SDS011;24099;47.102;15.440;2024-03-07T12:02:11;3.40;;;2.30;;
3667;SDS011;24099;47.102;15.440;2024-03-07T12:04:40;4.80;;;2.58;;
3667;SDS011;24099;47.102;15.440;2024-03-07T12:07:07;3.80;;;2.20;;
3667;SDS011;24099;47.102;15.440;2024-03-07T12:09:36;4.45;;;2.45;;
3667;SDS011;24099;47.102;15.440;2024-03-07T12:12:04;4.57;;;2.72;;
3667;SDS011;24099;47.102;15.440;2024-03-07T12:14:33;6.45;;;2.20;;
3667;SDS011;24099;47.102;15.440;2024-03-07T12:17:00;2.72;;;1.77;;
3667;SDS011;24099;47.102;15.440;2024-03-07T12:19:29;3.03;;;2.38;;
3667;SDS011;24099;47.102;15.440;2024-03-07T12:21:59;4.43;;;2.25;;
3667;SDS011;24099;47.102;15.440;2024-03-07T12:24:26;3.83;;;2.35;;
3667;SDS011;24099;47.102;15.440;2024-03-07T12:27:04;3.90;;;2.30;;
3667;SDS011;24099;47.102;15.440;2024-03-07T12:29:33;5.68;;;2.80;;
3667;SDS011;24099;47.102;15.440;2024-03-07T12:32:00;4.35;;;2.63;;
3667;SDS011;24099;47.102;15.440;2024-03-07T12:36:55;5.43;;;2.60;;
3667;SDS011;24099;47.102;15.440;2024-03-07T12:39:24;4.55;;;2.60;;
3667;SDS011;24099;47.102;15.440;2024-03-07T12:41:55;4.63;;;2.53;;
3667;SDS011;24099;47.102;15.440;2024-03-07T12:44:22;3.35;;;2.50;;
3667;SDS011;24099;47.102;15.440;2024-03-07T12:46:52;3.80;;;2.50;;
3667;SDS011;24099;47.102;15.440;2024-03-07T12:49:21;4.65;;;2.22;;
3667;SDS011;24099;47.102;15.440;2024-03-07T12:51:52;4.82;;;2.67;;
3667;SDS011;24099;47.102;15.440;2024-03-07T12:54:20;4.72;;;2.38;;
3667;SDS011;24099;47.102;15.440;2024-03-07T12:56:47;4.32;;;2.30;;
3667;SDS011;24099;47.102;15.440;2024-03-07T12:59:15;4.78;;;2.47;;
3667;SDS011;24099;47.102;15.440;2024-03-07T13:01:44;3.60;;;2.22;;
3667;SDS011;24099;47.102;15.440;2024-03-07T13:04:14;5.13;;;2.95;;
3667;SDS011;24099;47.102;15.440;2024-03-07T13:06:41;4.68;;;2.30;;
3667;SDS011;24099;47.102;15.440;2024-03-07T13:09:08;3.40;;;2.30;;
3667;SDS011;24099;47.102;15.440;2024-03-07T13:11:37;3.22;;;2.35;;
3667;SDS011;24099;47.102;15.440;2024-03-07T13:14:06;3.40;;;2.28;;
3667;SDS011;24099;47.102;15.440;2024-03-07T13:16:33;3.75;;;2.20;;
3667;SDS011;24099;47.102;15.440;2024-03-07T13:19:00;4.53;;;2.38;;
3667;SDS011;24099;47.102;15.440;2024-03-07T13:21:31;3.13;;;2.15;;
3667;SDS011;24099;47.102;15.440;2024-03-07T13:23:59;4.53;;;2.30;;
3667;SDS011;24099;47.102;15.440;2024-03-07T13:26:26;3.63;;;1.90;;
3667;SDS011;24099;47.102;15.440;2024-03-07T13:28:55;4.03;;;2.15;;
3667;SDS011;24099;47.102;15.440;2024-03-07T13:31:26;4.95;;;2.35;;
3667;SDS011;24099;47.102;15.440;2024-03-07T13:33:53;4.05;;;2.00;;
3667;SDS011;24099;47.102;15.440;2024-03-07T13:36:21;3.78;;;2.00;;
3667;SDS011;24099;47.102;15.440;2024-03-07T13:38:51;3.90;;;1.80;;
3667;SDS011;24099;47.102;15.440;2024-03-07T13:41:21;3.45;;;2.22;;
3667;SDS011;24099;47.102;15.440;2024-03-07T13:43:48;3.67;;;2.17;;
3667;SDS011;24099;47.102;15.440;2024-03-07T13:46:16;5.03;;;1.92;;
3667;SDS011;24099;47.102;15.440;2024-03-07T13:48:43;3.45;;;2.13;;
3667;SDS011;24099;47.102;15.440;2024-03-07T13:51:11;5.88;;;1.85;;
3667;SDS011;24099;47.102;15.440;2024-03-07T13:53:40;4.05;;;1.90;;
3667;SDS011;24099;47.102;15.440;2024-03-07T13:56:34;2.63;;;1.90;;
3667;SDS011;24099;47.102;15.440;2024-03-07T13:59:18;5.97;;;2.30;;
3667;SDS011;24099;47.102;15.440;2024-03-07T14:02:09;2.03;;;1.58;;
3667;SDS011;24099;47.102;15.440;2024-03-07T14:04:55;2.67;;;1.92;;
3667;SDS011;24099;47.102;15.440;2024-03-07T14:08:00;3.13;;;2.15;;
3667;SDS011;24099;47.102;15.440;2024-03-07T14:13:44;3.72;;;2.10;;
3667;SDS011;24099;47.102;15.440;2024-03-07T14:22:40;4.80;;;2.20;;
3667;SDS011;24099;47.102;15.440;2024-03-07T14:25:23;3.55;;;2.38;;
3667;SDS011;24099;47.102;15.440;2024-03-07T14:31:08;3.22;;;1.80;;
3667;SDS011;24099;47.102;15.440;2024-03-07T14:33:47;3.15;;;1.95;;
3667;SDS011;24099;47.102;15.440;2024-03-07T14:36:16;5.60;;;2.25;;
3667;SDS011;24099;47.102;15.440;2024-03-07T14:38:46;5.18;;;2.53;;
3667;SDS011;24099;47.102;15.440;2024-03-07T14:41:15;3.38;;;2.03;;
3667;SDS011;24099;47.102;15.440;2024-03-07T14:43:43;3.70;;;2.28;;
3667;SDS011;24099;47.102;15.440;2024-03-07T14:46:12;4.22;;;2.35;;
3667;SDS011;24099;47.102;15.440;2024-03-07T14:48:40;4.35;;;2.17;;
3667;SDS011;24099;47.102;15.440;2024-03-07T14:53:38;4.03;;;2.35;;
3667;SDS011;24099;47.102;15.440;2024-03-07T14:56:07;6.40;;;2.50;;
3667;SDS011;24099;47.102;15.440;2024-03-07T14:58:34;3.85;;;2.67;;
3667;SDS011;24099;47.102;15.440;2024-03-07T15:01:03;4.80;;;2.67;;
3667;SDS011;24099;47.102;15.440;2024-03-07T15:03:32;5.38;;;2.78;;
3667;SDS011;24099;47.102;15.440;2024-03-07T15:06:00;4.18;;;2.50;;
3667;SDS011;24099;47.102;15.440;2024-03-07T15:08:27;4.68;;;2.42;;
3667;SDS011;24099;47.102;15.440;2024-03-07T15:10:56;6.75;;;3.08;;
3667;SDS011;24099;47.102;15.440;2024-03-07T15:13:30;5.40;;;2.90;;
3667;SDS011;24099;47.102;15.440;2024-03-07T15:18:24;4.35;;;2.28;;
3667;SDS011;24099;47.102;15.440;2024-03-07T15:20:54;4.25;;;2.55;;
3667;SDS011;24099;47.102;15.440;2024-03-07T15:23:22;6.05;;;2.80;;
3667;SDS011;24099;47.102;15.440;2024-03-07T15:28:16;3.25;;;1.88;;
3667;SDS011;24099;47.102;15.440;2024-03-07T15:33:09;6.38;;;2.65;;
3667;SDS011;24099;47.102;15.440;2024-03-07T15:38:05;10.57;;;4.22;;
3667;SDS011;24099;47.102;15.440;2024-03-07T15:40:33;7.00;;;3.30;;
3667;SDS011;24099;47.102;15.440;2024-03-07T15:43:01;6.40;;;3.00;;
3667;SDS011;24099;47.102;15.440;2024-03-07T15:45:28;7.65;;;3.25;;
3667;SDS011;24099;47.102;15.440;2024-03-07T15:47:57;5.93;;;2.70;;
3667;SDS011;24099;47.102;15.440;2024-03-07T15:50:25;4.90;;;3.17;;